Huangpi, China
Current Conditions -  °F | °C
As of 4:00 AM on Friday 19 Dec 2014 (Local Time) from ZHHH Reporting Station
Clear Clear  
Wind Chill: 41°   Ceiling: Unl
Heat Index: 41°   Visibility: 4mi
Dew Point: 32°   Wind: 2mph
Humidity: 70%   Direction: NA
Pressure: 30.33"   Gusts: NA
Location:  30.87°N, 114.36°E
Report Text: ZHHH 182000Z VRB01MPS 6000 NSC 05/00 Q1027 NOSIG
Loading
Personal Weather Stations






























Interactive Weather Map New forecast layout! Learn more

10-Day Weather Forecast

Advertisements
Track Severe Weather on mobile